createdAt,value
2022-09-30T00:00:00.314Z,9.40
2022-09-30T00:05:08.996Z,9.43
2022-09-30T00:10:17.765Z,9.46
2022-09-30T00:15:24.881Z,9.49
2022-09-30T00:20:36.426Z,9.53
2022-09-30T00:25:43.620Z,9.53
2022-09-30T00:30:50.897Z,9.53
2022-09-30T00:35:57.855Z,9.53
2022-09-30T00:41:04.172Z,9.56
2022-09-30T00:46:20.588Z,9.56
2022-09-30T00:51:35.632Z,9.53
2022-09-30T00:56:46.261Z,9.53
2022-09-30T01:01:55.079Z,9.57
2022-09-30T01:07:06.611Z,9.58
2022-09-30T01:12:16.778Z,9.60
2022-09-30T01:17:34.884Z,9.57
2022-09-30T01:22:51.149Z,9.60
2022-09-30T01:28:21.943Z,9.65
2022-09-30T01:33:39.330Z,9.69
2022-09-30T01:39:07.500Z,9.70
2022-09-30T01:44:21.410Z,9.69
2022-09-30T01:49:34.986Z,9.73
2022-09-30T01:54:48.866Z,9.76
2022-09-30T02:00:00.454Z,9.77
2022-09-30T02:05:13.012Z,9.74
2022-09-30T02:10:25.005Z,9.72
2022-09-30T02:15:40.676Z,9.71
2022-09-30T02:20:50.785Z,9.70
2022-09-30T02:26:07.990Z,9.71
2022-09-30T02:31:17.719Z,9.71
2022-09-30T02:36:31.548Z,9.69
2022-09-30T02:41:45.606Z,9.74
2022-09-30T02:47:01.366Z,9.78
2022-09-30T02:52:22.229Z,9.77
2022-09-30T02:57:41.514Z,9.71
2022-09-30T03:02:49.529Z,9.72
2022-09-30T03:07:56.976Z,9.74
2022-09-30T03:13:22.161Z,9.71
2022-09-30T03:18:42.774Z,9.70
2022-09-30T03:24:27.130Z,9.70
2022-09-30T03:29:46.823Z,9.70
2022-09-30T03:35:05.707Z,9.71
2022-09-30T03:40:24.962Z,9.75
2022-09-30T03:45:39.027Z,9.81
2022-09-30T03:50:47.030Z,9.81
2022-09-30T03:55:54.922Z,9.80
2022-09-30T04:01:02.113Z,9.79
2022-09-30T04:06:13.082Z,9.80
2022-09-30T04:11:20.995Z,9.76
2022-09-30T04:16:28.168Z,9.75
2022-09-30T04:21:35.093Z,9.77
2022-09-30T04:26:41.988Z,9.81
2022-09-30T04:31:47.556Z,9.83
2022-09-30T04:36:54.870Z,9.84
2022-09-30T04:42:02.066Z,9.79
2022-09-30T04:47:09.266Z,9.82
2022-09-30T04:52:16.219Z,9.83
2022-09-30T04:57:23.482Z,9.80
2022-09-30T05:02:30.606Z,9.77
2022-09-30T05:07:37.581Z,9.76
2022-09-30T05:12:42.908Z,9.77
2022-09-30T05:17:51.809Z,9.76
2022-09-30T05:22:59.553Z,9.78
2022-09-30T05:28:06.727Z,9.80
2022-09-30T05:33:14.966Z,9.83
2022-09-30T05:38:22.142Z,9.83
2022-09-30T05:43:29.143Z,9.86
2022-09-30T05:48:36.445Z,9.89
2022-09-30T05:53:43.775Z,9.90
2022-09-30T05:58:51.372Z,9.91
2022-09-30T06:03:59.705Z,9.90
2022-09-30T06:09:07.200Z,9.92
2022-09-30T06:14:15.458Z,9.93
2022-09-30T06:19:22.685Z,9.97
2022-09-30T06:24:31.289Z,10.00
2022-09-30T06:29:38.697Z,10.04
2022-09-30T06:34:46.514Z,10.08
2022-09-30T06:39:53.933Z,10.12
2022-09-30T06:45:01.021Z,10.21
2022-09-30T06:50:21.000Z,10.30
2022-09-30T06:55:32.014Z,10.32
2022-09-30T07:00:39.718Z,10.28
2022-09-30T07:05:48.371Z,10.25
2022-09-30T07:10:57.065Z,10.26
2022-09-30T07:16:04.261Z,10.25
2022-09-30T07:21:10.956Z,10.33
2022-09-30T07:26:19.271Z,10.40
2022-09-30T07:31:32.930Z,10.47
2022-09-30T07:36:44.748Z,10.46
2022-09-30T07:41:56.641Z,10.46
2022-09-30T07:47:04.596Z,10.46
2022-09-30T07:52:14.227Z,10.48
2022-09-30T07:57:21.816Z,10.48
2022-09-30T08:02:29.030Z,10.49
2022-09-30T08:07:36.750Z,10.49
2022-09-30T08:12:43.835Z,10.51
2022-09-30T08:17:50.725Z,10.54
2022-09-30T08:22:56.240Z,10.55
2022-09-30T08:28:04.360Z,10.58
2022-09-30T08:33:11.650Z,10.60
2022-09-30T08:38:19.138Z,10.63
2022-09-30T08:43:35.859Z,10.67
2022-09-30T08:48:54.049Z,10.70
2022-09-30T08:54:05.614Z,10.72
2022-09-30T08:59:30.983Z,10.74
2022-09-30T09:10:01.317Z,10.71
2022-09-30T09:15:30.344Z,10.75
2022-09-30T09:20:42.534Z,10.77
2022-09-30T09:25:53.317Z,10.81
2022-09-30T09:31:02.737Z,10.86
2022-09-30T09:36:20.929Z,10.91
2022-09-30T09:41:38.571Z,10.91
2022-09-30T09:46:51.125Z,10.94
2022-09-30T09:52:17.243Z,10.95
2022-09-30T09:57:31.514Z,10.96
2022-09-30T10:02:38.870Z,11.01
2022-09-30T10:07:46.284Z,11.08
2022-09-30T10:12:54.047Z,11.10
2022-09-30T10:18:02.609Z,11.16
2022-09-30T10:23:20.941Z,11.24
2022-09-30T10:28:32.297Z,11.27
2022-09-30T10:33:47.846Z,11.20
2022-09-30T10:39:21.123Z,11.18
2022-09-30T10:44:29.267Z,11.20
2022-09-30T10:49:43.675Z,11.19
2022-09-30T10:54:54.034Z,11.18
2022-09-30T11:00:05.378Z,11.20
2022-09-30T11:05:21.748Z,11.24
2022-09-30T11:10:42.016Z,11.28
2022-09-30T11:16:04.730Z,11.29
2022-09-30T11:21:19.527Z,11.30
2022-09-30T11:26:36.329Z,11.33
2022-09-30T11:31:51.627Z,11.30
2022-09-30T11:37:07.720Z,11.30
2022-09-30T11:42:23.077Z,11.27
2022-09-30T11:47:48.487Z,11.25
2022-09-30T11:53:04.904Z,11.21
2022-09-30T11:58:39.520Z,11.23
2022-09-30T12:03:47.653Z,11.26
2022-09-30T12:08:58.313Z,11.28
2022-09-30T12:14:11.894Z,11.34
2022-09-30T12:19:25.233Z,11.36
2022-09-30T12:24:37.400Z,11.37
2022-09-30T12:30:08.210Z,11.39
2022-09-30T12:35:43.656Z,11.44
2022-09-30T12:41:03.054Z,11.47
2022-09-30T12:46:20.180Z,11.50
2022-09-30T12:51:31.880Z,11.51
2022-09-30T12:56:43.036Z,11.46
2022-09-30T13:01:49.949Z,11.41
2022-09-30T13:07:19.651Z,11.42
2022-09-30T13:12:31.029Z,11.46
2022-09-30T13:17:38.293Z,11.46
2022-09-30T13:22:55.718Z,11.44
2022-09-30T13:28:30.892Z,11.49
2022-09-30T13:34:04.081Z,11.55
2022-09-30T13:39:26.817Z,11.62
2022-09-30T13:44:46.005Z,11.64
2022-09-30T13:49:58.736Z,11.64
2022-09-30T13:55:18.211Z,11.67
2022-09-30T14:00:33.702Z,11.74
2022-09-30T14:06:03.150Z,11.80
2022-09-30T14:11:22.090Z,11.90
2022-09-30T14:17:01.152Z,11.96
2022-09-30T14:22:10.431Z,12.00
2022-09-30T14:27:35.810Z,11.99
2022-09-30T14:32:47.931Z,11.99
2022-09-30T14:37:58.913Z,11.95
2022-09-30T14:43:09.790Z,11.93
2022-09-30T14:48:21.717Z,11.89
2022-09-30T14:53:30.511Z,11.84
2022-09-30T14:58:43.635Z,11.81
2022-09-30T15:03:55.616Z,11.81
2022-09-30T15:09:08.306Z,11.83
2022-09-30T15:14:20.584Z,11.86
2022-09-30T15:19:30.310Z,11.87
2022-09-30T15:24:38.287Z,11.91
2022-09-30T15:29:58.962Z,11.97
2022-09-30T15:35:13.626Z,12.01
2022-09-30T15:40:40.890Z,12.03
2022-09-30T15:45:54.075Z,12.04
2022-09-30T15:51:02.252Z,12.03
2022-09-30T15:56:19.604Z,12.05
2022-09-30T16:01:28.072Z,12.06
2022-09-30T16:06:38.198Z,12.07
2022-09-30T16:11:46.387Z,12.02
2022-09-30T16:16:56.258Z,11.97
2022-09-30T16:22:03.731Z,11.95
2022-09-30T16:27:26.698Z,11.98
2022-09-30T16:32:41.863Z,12.00
2022-09-30T16:37:49.625Z,12.03
2022-09-30T16:42:58.889Z,11.98
2022-09-30T16:48:15.758Z,11.94
2022-09-30T16:53:22.985Z,11.93
2022-09-30T16:58:31.799Z,11.93
2022-09-30T17:03:39.066Z,11.95
2022-09-30T17:08:46.319Z,11.98
2022-09-30T17:13:53.207Z,12.01
2022-09-30T17:19:00.967Z,11.96
2022-09-30T17:24:08.130Z,11.88
2022-09-30T17:29:33.186Z,11.85
2022-09-30T17:34:41.416Z,11.84
2022-09-30T17:39:48.674Z,11.87
2022-09-30T17:44:55.682Z,11.89
2022-09-30T17:50:04.244Z,11.86
2022-09-30T17:55:11.956Z,11.83
2022-09-30T18:00:19.683Z,11.79
2022-09-30T18:05:27.703Z,11.75
2022-09-30T18:10:36.944Z,11.71
2022-09-30T18:15:44.157Z,11.70
2022-09-30T18:20:52.375Z,11.68
2022-09-30T18:26:00.183Z,11.72
2022-09-30T18:31:18.415Z,11.77
2022-09-30T18:36:29.424Z,11.80
2022-09-30T18:41:41.906Z,11.78
2022-09-30T18:46:55.600Z,11.76
2022-09-30T18:52:03.625Z,11.78
2022-09-30T18:57:10.557Z,11.78
2022-09-30T19:02:21.020Z,11.73
2022-09-30T19:07:28.396Z,11.66
2022-09-30T19:12:40.746Z,11.57
2022-09-30T19:17:48.255Z,11.54
2022-09-30T19:22:55.554Z,11.52
2022-09-30T19:28:03.494Z,11.52
2022-09-30T19:33:11.088Z,11.49
2022-09-30T19:38:34.353Z,11.50
2022-09-30T19:43:46.793Z,11.56
2022-09-30T19:48:53.986Z,11.55
2022-09-30T19:54:06.613Z,11.45
2022-09-30T19:59:14.386Z,11.39
2022-09-30T20:04:21.541Z,11.41
2022-09-30T20:09:28.676Z,11.47
2022-09-30T20:14:53.552Z,11.46
2022-09-30T20:20:18.662Z,11.44
2022-09-30T20:25:25.755Z,11.45
2022-09-30T20:30:34.088Z,11.38
2022-09-30T20:35:40.994Z,11.34
2022-09-30T20:40:54.449Z,11.34
2022-09-30T20:46:03.865Z,11.38
2022-09-30T20:51:13.046Z,11.36
2022-09-30T20:56:21.689Z,11.38
2022-09-30T21:01:29.081Z,11.43
2022-09-30T21:06:36.403Z,11.43
2022-09-30T21:11:43.305Z,11.38
2022-09-30T21:16:49.033Z,11.32
2022-09-30T21:21:57.046Z,11.26
2022-09-30T21:27:06.229Z,11.21
2022-09-30T21:32:13.508Z,11.21
2022-09-30T21:37:20.546Z,11.23
2022-09-30T21:42:27.752Z,11.23
2022-09-30T21:47:34.952Z,11.21
2022-09-30T21:52:43.290Z,11.21
2022-09-30T21:57:50.491Z,11.19
2022-09-30T22:02:57.361Z,11.16
2022-09-30T22:08:03.069Z,11.13
2022-09-30T22:13:12.056Z,11.10
2022-09-30T22:18:20.888Z,11.09
2022-09-30T22:23:28.881Z,11.11
2022-09-30T22:28:36.393Z,11.14
2022-09-30T22:34:01.184Z,11.16
2022-09-30T22:39:08.501Z,11.18
2022-09-30T22:44:16.826Z,11.19
2022-09-30T22:49:26.191Z,11.20
2022-09-30T22:54:35.331Z,11.22
2022-09-30T22:59:43.179Z,11.22
2022-09-30T23:04:51.890Z,11.27
2022-09-30T23:09:59.096Z,11.32
2022-09-30T23:15:07.984Z,11.32
2022-09-30T23:20:14.970Z,11.27
2022-09-30T23:25:23.056Z,11.26
2022-09-30T23:30:30.161Z,11.28
2022-09-30T23:35:37.777Z,11.24
2022-09-30T23:40:50.822Z,11.22
2022-09-30T23:45:57.847Z,11.20
2022-09-30T23:51:05.757Z,11.23
2022-09-30T23:56:15.703Z,11.18
